createdAt,value
2022-12-18T00:00:28.416Z,102748.47
2022-12-18T00:03:31.090Z,102751.00
2022-12-18T00:06:34.089Z,102753.47
2022-12-18T00:09:39.797Z,102768.56
2022-12-18T00:12:42.976Z,102775.22
2022-12-18T00:15:45.551Z,102759.25
2022-12-18T00:18:48.225Z,102755.44
2022-12-18T00:21:50.804Z,102756.88
2022-12-18T00:24:54.693Z,102760.41
2022-12-18T00:27:57.263Z,102755.34
2022-12-18T00:31:02.611Z,102749.56
2022-12-18T00:34:05.311Z,102752.75
2022-12-18T00:37:07.843Z,102756.56
2022-12-18T00:40:13.440Z,102755.31
2022-12-18T00:43:15.009Z,102753.84
2022-12-18T00:46:17.653Z,102757.78
2022-12-18T00:49:21.157Z,102754.66
2022-12-18T00:52:23.721Z,102759.66
2022-12-18T00:55:27.760Z,102760.88
2022-12-18T00:58:30.322Z,102766.41
2022-12-18T01:01:33.525Z,102768.28
2022-12-18T01:04:36.373Z,102763.88
2022-12-18T01:07:38.937Z,102761.53
2022-12-18T01:10:43.349Z,102765.94
2022-12-18T01:13:45.880Z,102772.41
2022-12-18T01:16:48.455Z,102770.13
2022-12-18T01:19:51.067Z,102779.94
2022-12-18T01:22:53.625Z,102782.25
2022-12-18T01:25:57.567Z,102771.56
2022-12-18T01:29:00.340Z,102768.00
2022-12-18T01:32:02.999Z,102769.75
2022-12-18T01:35:06.670Z,102765.81
2022-12-18T01:38:09.187Z,102775.25
2022-12-18T01:41:13.060Z,102771.91
2022-12-18T01:44:48.940Z,102771.91
2022-12-18T01:47:52.184Z,102787.81
2022-12-18T01:50:54.758Z,102789.88
2022-12-18T01:53:57.349Z,102793.66
2022-12-18T01:57:01.848Z,102801.38
2022-12-18T02:00:07.547Z,102792.16
2022-12-18T02:03:10.235Z,102800.97
2022-12-18T02:06:15.542Z,102800.72
2022-12-18T02:09:20.487Z,102795.72
2022-12-18T02:12:25.339Z,102802.38
2022-12-18T02:15:30.437Z,102802.38
2022-12-18T02:18:34.743Z,102799.47
2022-12-18T02:21:42.470Z,102794.84
2022-12-18T02:24:47.289Z,102799.25
2022-12-18T02:27:51.438Z,102786.03
2022-12-18T02:30:54.108Z,102801.34
2022-12-18T02:34:01.939Z,102797.56
2022-12-18T02:37:05.835Z,102794.84
2022-12-18T02:40:10.009Z,102782.28
2022-12-18T02:43:14.851Z,102767.59
2022-12-18T02:46:39.104Z,102762.34
2022-12-18T02:49:46.513Z,102757.13
2022-12-18T02:52:51.989Z,102757.97
2022-12-18T02:55:58.982Z,102744.44
2022-12-18T02:59:04.287Z,102754.28
2022-12-18T03:02:09.914Z,102742.75
2022-12-18T03:05:14.446Z,102742.53
2022-12-18T03:08:18.137Z,102737.09
2022-12-18T03:11:40.700Z,102734.16
2022-12-18T03:14:44.571Z,102732.91
2022-12-18T03:17:48.444Z,102731.03
2022-12-18T03:20:51.233Z,102737.13
2022-12-18T03:23:53.752Z,102730.44
2022-12-18T03:26:58.295Z,102726.25
2022-12-18T03:30:08.243Z,102729.22
2022-12-18T03:33:12.599Z,102733.38
2022-12-18T03:36:15.112Z,102731.28
2022-12-18T03:39:17.621Z,102730.66
2022-12-18T03:42:23.279Z,102722.94
2022-12-18T03:45:29.136Z,102725.22
2022-12-18T03:48:33.201Z,102720.88
2022-12-18T03:51:39.694Z,102724.63
2022-12-18T03:54:42.303Z,102725.22
2022-12-18T03:57:44.902Z,102722.50
2022-12-18T04:00:48.816Z,102724.63
2022-12-18T04:03:51.396Z,102722.97
2022-12-18T04:06:54.001Z,102731.38
2022-12-18T04:09:57.921Z,102724.50
2022-12-18T04:13:00.534Z,102726.38
2022-12-18T04:16:04.839Z,102722.63
2022-12-18T04:19:07.401Z,102727.63
2022-12-18T04:22:11.133Z,102734.75
2022-12-18T04:25:13.739Z,102739.34
2022-12-18T04:28:16.306Z,102733.91
2022-12-18T04:31:20.220Z,102737.66
2022-12-18T04:34:23.120Z,102738.94
2022-12-18T04:37:25.668Z,102737.66
2022-12-18T04:40:28.230Z,102744.78
2022-12-18T04:43:30.842Z,102740.00
2022-12-18T04:46:34.812Z,102742.28
2022-12-18T04:49:37.441Z,102741.66
2022-12-18T04:52:40.019Z,102734.75
2022-12-18T04:55:42.584Z,102741.47
2022-12-18T04:58:45.953Z,102737.28
2022-12-18T05:01:49.989Z,102732.28
2022-12-18T05:04:52.643Z,102731.00
2022-12-18T05:07:55.175Z,102734.34
2022-12-18T05:11:01.622Z,102736.88
2022-12-18T05:14:04.212Z,102740.44
2022-12-18T05:17:08.092Z,102728.28
2022-12-18T05:20:11.753Z,102728.06
2022-12-18T05:23:14.331Z,102725.34
2022-12-18T05:26:18.567Z,102725.16
2022-12-18T05:29:21.144Z,102725.97
2022-12-18T05:32:25.089Z,102722.19
2022-12-18T05:35:27.672Z,102713.84
2022-12-18T05:38:31.001Z,102722.81
2022-12-18T05:41:33.564Z,102722.56
2022-12-18T05:44:36.143Z,102715.50
2022-12-18T05:47:40.070Z,102716.53
2022-12-18T05:50:43.461Z,102710.88
2022-12-18T05:53:46.081Z,102710.88
2022-12-18T05:56:49.065Z,102720.91
2022-12-18T05:59:52.028Z,102713.31
2022-12-18T06:02:55.964Z,102715.81
2022-12-18T06:05:58.583Z,102709.78
2022-12-18T06:09:02.224Z,102701.63
2022-12-18T06:12:05.160Z,102701.22
2022-12-18T06:15:08.756Z,102689.72
2022-12-18T06:18:12.608Z,102680.72
2022-12-18T06:21:15.136Z,102683.66
2022-12-18T06:24:17.701Z,102681.13
2022-12-18T06:27:20.220Z,102677.16
2022-12-18T06:30:22.738Z,102674.22
2022-12-18T06:33:27.855Z,102675.63
2022-12-18T06:36:33.272Z,102668.53
2022-12-18T06:39:35.781Z,102659.78
2022-12-18T06:42:38.304Z,102657.66
2022-12-18T06:45:41.385Z,102656.47
2022-12-18T06:48:48.277Z,102637.25
2022-12-18T06:51:50.806Z,102648.94
2022-12-18T06:54:53.384Z,102634.75
2022-12-18T06:57:55.953Z,102634.91
2022-12-18T07:01:02.154Z,102633.47
2022-12-18T07:04:06.299Z,102624.91
2022-12-18T07:07:08.817Z,102625.94
2022-12-18T07:10:11.460Z,102615.50
2022-12-18T07:13:13.981Z,102615.50
2022-12-18T07:16:24.274Z,102590.84
2022-12-18T07:19:28.981Z,102577.50
2022-12-18T07:22:32.547Z,102573.94
2022-12-18T07:25:35.800Z,102564.94
2022-12-18T07:28:38.508Z,102559.91
2022-12-18T07:31:41.451Z,102556.16
2022-12-18T07:34:45.580Z,102560.75
2022-12-18T07:37:49.811Z,102560.97
2022-12-18T07:40:52.333Z,102571.63
2022-12-18T07:43:54.860Z,102557.03
2022-12-18T07:46:57.367Z,102572.50
2022-12-18T07:50:01.269Z,102572.09
2022-12-18T07:53:05.727Z,102575.00
2022-12-18T07:59:32.213Z,102553.88
2022-12-18T08:02:34.849Z,102567.91
2022-12-18T08:05:39.328Z,102551.19
2022-12-18T08:08:43.035Z,102554.97
2022-12-18T08:11:45.661Z,102559.13
2022-12-18T08:14:48.199Z,102561.22
2022-12-18T08:17:50.754Z,102552.84
2022-12-18T08:20:54.747Z,102559.75
2022-12-18T08:23:57.961Z,102557.03
2022-12-18T08:30:23.304Z,102539.91
2022-12-18T08:33:25.988Z,102563.31
2022-12-18T08:36:29.906Z,102568.75
2022-12-18T08:39:32.468Z,102570.19
2022-12-18T08:42:55.620Z,102582.94
2022-12-18T08:45:58.436Z,102585.66
2022-12-18T08:49:01.056Z,102605.13
2022-12-18T08:52:05.400Z,102607.41
2022-12-18T08:55:09.532Z,102603.00
2022-12-18T08:58:12.066Z,102599.22
2022-12-18T09:01:14.976Z,102589.59
2022-12-18T09:04:17.705Z,102593.41
2022-12-18T09:07:21.634Z,102585.84
2022-12-18T09:10:24.163Z,102583.31
2022-12-18T09:13:26.729Z,102571.19
2022-12-18T09:16:32.245Z,102553.63
2022-12-18T09:19:35.412Z,102539.03
2022-12-18T09:22:39.260Z,102547.16
2022-12-18T09:25:41.845Z,102550.28
2022-12-18T09:28:45.003Z,102544.84
2022-12-18T09:31:47.565Z,102541.06
2022-12-18T09:34:50.149Z,102531.88
2022-12-18T09:37:54.017Z,102551.50
2022-12-18T09:40:59.577Z,102547.75
2022-12-18T09:44:03.251Z,102550.25
2022-12-18T09:47:11.682Z,102556.88
2022-12-18T09:50:21.591Z,102562.31
2022-12-18T09:53:27.825Z,102562.50
2022-12-18T09:56:31.126Z,102556.81
2022-12-18T09:59:36.568Z,102550.50
2022-12-18T10:02:39.288Z,102538.75
2022-12-18T10:05:44.340Z,102537.88
2022-12-18T10:08:51.121Z,102532.63
2022-12-18T10:11:57.289Z,102523.22
2022-12-18T10:15:02.731Z,102520.50
2022-12-18T10:18:20.290Z,102514.88
2022-12-18T10:21:27.072Z,102509.00
2022-12-18T10:24:34.826Z,102513.63
2022-12-18T10:27:37.333Z,102507.16
2022-12-18T10:30:40.073Z,102503.56
2022-12-18T10:33:42.654Z,102507.75
2022-12-18T10:36:45.232Z,102496.81
2022-12-18T10:39:49.431Z,102490.13
2022-12-18T10:43:05.198Z,102494.25
2022-12-18T10:46:16.461Z,102493.81
2022-12-18T10:49:24.512Z,102501.09
2022-12-18T10:52:27.467Z,102488.09
2022-12-18T10:55:33.679Z,102492.03
2022-12-18T10:58:37.140Z,102498.72
2022-12-18T11:01:51.058Z,102489.69
2022-12-18T11:04:53.963Z,102487.75
2022-12-18T11:07:57.104Z,102482.69
2022-12-18T11:11:00.984Z,102480.50
2022-12-18T11:14:05.226Z,102480.22
2022-12-18T11:17:26.747Z,102474.19
2022-12-18T11:20:33.559Z,102482.50
2022-12-18T11:23:36.513Z,102462.53
2022-12-18T11:26:40.901Z,102459.38
2022-12-18T11:29:46.704Z,102457.25
2022-12-18T11:32:49.517Z,102462.25
2022-12-18T11:35:53.164Z,102452.56
2022-12-18T11:38:55.829Z,102457.78
2022-12-18T11:42:13.316Z,102446.22
2022-12-18T11:45:27.998Z,102416.22
2022-12-18T11:48:32.238Z,102395.88
2022-12-18T11:51:36.521Z,102377.28
2022-12-18T11:54:39.089Z,102385.19
2022-12-18T11:57:46.385Z,102395.78
2022-12-18T12:00:50.819Z,102378.97
2022-12-18T12:04:37.218Z,102374.03
2022-12-18T12:07:44.187Z,102376.69
2022-12-18T12:10:52.881Z,102371.22
2022-12-18T12:14:04.366Z,102375.75
2022-12-18T12:17:12.244Z,102378.63
2022-12-18T12:20:17.817Z,102366.97
2022-12-18T12:23:27.814Z,102359.19
2022-12-18T12:26:34.825Z,102361.13
2022-12-18T12:29:44.905Z,102346.03
2022-12-18T12:33:00.122Z,102363.16
2022-12-18T12:36:06.301Z,102356.16
2022-12-18T12:39:10.275Z,102352.75
2022-12-18T12:42:33.800Z,102362.34
2022-12-18T12:45:39.392Z,102343.38
2022-12-18T12:48:44.556Z,102338.75
2022-12-18T12:51:48.021Z,102335.34
2022-12-18T12:54:51.830Z,102338.66
2022-12-18T12:57:59.697Z,102329.41
2022-12-18T13:01:10.555Z,102326.81
2022-12-18T13:04:22.713Z,102297.13
2022-12-18T13:07:28.057Z,102310.44
2022-12-18T13:10:36.191Z,102300.72
2022-12-18T13:13:49.633Z,102295.00
2022-12-18T13:17:05.612Z,102299.19
2022-12-18T13:20:12.275Z,102297.63
2022-12-18T13:23:30.390Z,102288.38
2022-12-18T13:26:34.175Z,102280.78
2022-12-18T13:29:43.816Z,102265.59
2022-12-18T13:32:47.906Z,102256.56
2022-12-18T13:35:54.954Z,102243.19
2022-12-18T13:39:28.855Z,102239.50
2022-12-18T13:43:00.357Z,102244.56
2022-12-18T13:46:07.992Z,102241.63
2022-12-18T13:49:22.485Z,102245.75
2022-12-18T13:52:26.381Z,102235.66
2022-12-18T13:55:28.946Z,102230.81
2022-12-18T13:58:31.548Z,102218.31
2022-12-18T14:01:34.260Z,102210.75
2022-12-18T14:04:38.567Z,102217.38
2022-12-18T14:07:42.924Z,102208.13
2022-12-18T14:10:51.930Z,102211.09
2022-12-18T14:13:54.571Z,102201.47
2022-12-18T14:16:57.192Z,102198.03
2022-12-18T14:20:01.450Z,102201.81
2022-12-18T14:23:04.070Z,102201.47
2022-12-18T14:26:22.222Z,102192.22
2022-12-18T14:29:26.988Z,102184.50
2022-12-18T14:32:29.505Z,102178.56
2022-12-18T14:35:33.480Z,102168.09
2022-12-18T14:38:36.849Z,102150.72
2022-12-18T14:41:39.376Z,102152.75
2022-12-18T14:45:05.085Z,102147.41
2022-12-18T14:48:10.835Z,102140.38
2022-12-18T14:51:19.299Z,102149.16
2022-12-18T14:54:22.071Z,102145.00
2022-12-18T14:57:25.628Z,102146.81
2022-12-18T15:00:28.238Z,102153.94
2022-12-18T15:03:30.890Z,102142.53
2022-12-18T15:06:35.964Z,102152.97
2022-12-18T15:09:38.732Z,102147.50
2022-12-18T15:12:42.902Z,102144.16
2022-12-18T15:15:49.876Z,102147.50
2022-12-18T15:18:52.484Z,102146.44
2022-12-18T15:22:04.457Z,102145.59
2022-12-18T15:25:25.833Z,102131.09
2022-12-18T15:28:30.110Z,102126.13
2022-12-18T15:31:33.087Z,102133.75
2022-12-18T15:34:35.862Z,102141.94
2022-12-18T15:37:42.686Z,102133.25
2022-12-18T15:40:45.196Z,102123.50
2022-12-18T15:43:47.733Z,102118.38
2022-12-18T15:46:50.391Z,102110.53
2022-12-18T15:49:52.961Z,102115.50
2022-12-18T15:52:57.096Z,102102.97
2022-12-18T15:56:25.949Z,102097.03
2022-12-18T15:59:29.393Z,102088.84
2022-12-18T16:02:33.497Z,102086.44
2022-12-18T16:05:36.384Z,102090.13
2022-12-18T16:08:40.266Z,102082.47
2022-12-18T16:11:44.538Z,102089.13
2022-12-18T16:14:47.169Z,102094.09
2022-12-18T16:17:50.186Z,102086.50
2022-12-18T16:20:52.788Z,102077.78
2022-12-18T16:23:56.686Z,102069.34
2022-12-18T16:27:00.402Z,102061.97
2022-12-18T16:30:03.025Z,102057.66
2022-12-18T16:33:05.560Z,102068.59
2022-12-18T16:36:10.279Z,102059.06
2022-12-18T16:39:14.149Z,102055.50
2022-12-18T16:42:19.694Z,102049.53
2022-12-18T16:45:22.249Z,102052.84
2022-12-18T16:48:24.824Z,102038.09
2022-12-18T16:51:27.399Z,102040.59
2022-12-18T16:54:31.362Z,102040.34
2022-12-18T16:57:33.901Z,102049.34
2022-12-18T17:00:40.661Z,102051.38
2022-12-18T17:03:43.568Z,102040.44
2022-12-18T17:06:51.600Z,102023.50
2022-12-18T17:09:55.480Z,102038.25
2022-12-18T17:12:57.996Z,102022.94
2022-12-18T17:16:03.744Z,102028.97
2022-12-18T17:19:06.291Z,102025.16
2022-12-18T17:22:09.433Z,102027.66
2022-12-18T17:25:13.289Z,102030.97
2022-12-18T17:28:15.849Z,102035.09
2022-12-18T17:31:19.603Z,102030.47
2022-12-18T17:34:23.242Z,102025.00
2022-12-18T17:37:26.272Z,102030.78
2022-12-18T17:40:30.188Z,102018.50
2022-12-18T17:43:32.848Z,102027.56
2022-12-18T17:46:35.417Z,102019.34
2022-12-18T17:49:38.059Z,102028.69
2022-12-18T17:52:40.629Z,102025.47
2022-12-18T17:55:44.551Z,102014.28
2022-12-18T17:58:47.961Z,102019.47
2022-12-18T18:01:50.762Z,102024.47
2022-12-18T18:04:53.426Z,102027.78
2022-12-18T18:07:57.064Z,102023.94
2022-12-18T18:11:19.106Z,102026.78
2022-12-18T18:14:21.744Z,102018.81
2022-12-18T18:17:24.343Z,102023.53
2022-12-18T18:20:28.501Z,102019.97
2022-12-18T18:23:32.670Z,102027.91
2022-12-18T18:26:36.588Z,102026.59
2022-12-18T18:29:39.194Z,102017.28
2022-12-18T18:32:41.705Z,102015.38
2022-12-18T18:35:53.932Z,102014.31
2022-12-18T18:38:57.048Z,102013.47
2022-12-18T18:42:00.916Z,102015.66
2022-12-18T18:45:03.500Z,102005.50
2022-12-18T18:48:06.675Z,102001.13
2022-12-18T18:51:11.692Z,102002.22
2022-12-18T18:54:16.450Z,101998.41
2022-12-18T18:57:21.323Z,102001.69
2022-12-18T19:00:25.312Z,101993.75
2022-12-18T19:03:28.089Z,102002.22
2022-12-18T19:06:30.762Z,101991.56
2022-12-18T19:09:33.780Z,101991.81
2022-12-18T19:12:55.290Z,101993.47
2022-12-18T19:16:03.862Z,102002.53
2022-12-18T19:19:06.745Z,101998.41
2022-12-18T19:22:10.930Z,101992.94
2022-12-18T19:25:13.458Z,101983.59
2022-12-18T19:28:22.345Z,101979.56
2022-12-18T19:31:29.190Z,101990.75
2022-12-18T19:34:34.479Z,101981.97
2022-12-18T19:37:37.060Z,101973.78
2022-12-18T19:40:41.549Z,101978.72
2022-12-18T19:43:45.558Z,101969.44
2022-12-18T19:46:48.081Z,101974.91
2022-12-18T19:49:50.704Z,101977.66
2022-12-18T19:52:53.354Z,101967.81
2022-12-18T19:55:55.988Z,101976.63
2022-12-18T19:58:59.928Z,101986.50
2022-12-18T20:02:02.654Z,101983.25
2022-12-18T20:05:06.010Z,101971.78
2022-12-18T20:08:09.873Z,101967.97
2022-12-18T20:11:12.537Z,101953.22
2022-12-18T20:14:22.993Z,101946.06
2022-12-18T20:17:26.528Z,101940.59
2022-12-18T20:20:29.437Z,101923.09
2022-12-18T20:23:33.214Z,101932.09
2022-12-18T20:26:37.312Z,101928.56
2022-12-18T20:29:41.356Z,101924.22
2022-12-18T20:32:43.933Z,101919.34
2022-12-18T20:35:46.537Z,101915.47
2022-12-18T20:38:50.067Z,101923.69
2022-12-18T20:41:52.688Z,101920.47
2022-12-18T20:44:56.572Z,101906.25
2022-12-18T20:48:00.849Z,101917.78
2022-12-18T20:51:05.568Z,101921.09
2022-12-18T20:54:11.595Z,101902.47
2022-12-18T20:57:14.525Z,101893.44
2022-12-18T21:00:19.282Z,101887.69
2022-12-18T21:03:23.986Z,101882.78
2022-12-18T21:06:26.639Z,101873.75
2022-12-18T21:09:32.313Z,101867.78
2022-12-18T21:13:01.533Z,101860.94
2022-12-18T21:16:08.752Z,101849.47
2022-12-18T21:19:14.054Z,101854.41
2022-12-18T21:22:16.771Z,101852.25
2022-12-18T21:25:19.421Z,101847.88
2022-12-18T21:28:21.956Z,101832.03
2022-12-18T21:31:27.824Z,101825.75
2022-12-18T21:34:31.082Z,101816.75
2022-12-18T21:37:33.606Z,101820.63
2022-12-18T21:40:36.137Z,101810.78
2022-12-18T21:43:56.877Z,101808.91
2022-12-18T21:47:10.855Z,101803.72
2022-12-18T21:50:23.363Z,101804.84
2022-12-18T21:53:25.905Z,101803.22
2022-12-18T21:56:46.556Z,101799.69
2022-12-18T21:59:50.451Z,101791.19
2022-12-18T22:03:18.258Z,101792.84
2022-12-18T22:06:16.908Z,101785.72
2022-12-18T22:09:20.305Z,101760.78
2022-12-18T22:12:43.547Z,101759.69
2022-12-18T22:15:47.373Z,101769.56
2022-12-18T22:18:51.408Z,101764.38
2022-12-18T22:21:54.116Z,101752.31
2022-12-18T22:24:56.831Z,101758.38
2022-12-18T22:28:17.129Z,101746.84
2022-12-18T22:31:19.754Z,101743.84
2022-12-18T22:34:23.741Z,101741.69
2022-12-18T22:37:26.340Z,101733.47
2022-12-18T22:40:29.156Z,101724.97
2022-12-18T22:43:31.672Z,101724.44
2022-12-18T22:46:35.389Z,101707.97
2022-12-18T22:49:39.628Z,101710.72
2022-12-18T22:52:42.291Z,101712.94
2022-12-18T22:55:44.822Z,101720.34
2022-12-18T22:58:48.481Z,101714.03
2022-12-18T23:01:52.982Z,101704.16
2022-12-18T23:05:02.763Z,101701.97
2022-12-18T23:08:05.731Z,101697.06
2022-12-18T23:11:08.327Z,101688.84
2022-12-18T23:14:10.886Z,101678.69
2022-12-18T23:17:13.434Z,101671.81
2022-12-18T23:20:17.541Z,101668.28
2022-12-18T23:23:20.239Z,101657.00
2022-12-18T23:26:24.170Z,101652.66
2022-12-18T23:29:26.698Z,101670.22
2022-12-18T23:32:29.249Z,101662.53
2022-12-18T23:35:33.161Z,101669.38
2022-12-18T23:38:36.093Z,101655.41
2022-12-18T23:41:38.629Z,101650.47
2022-12-18T23:44:41.202Z,101650.72
2022-12-18T23:47:43.721Z,101629.59
2022-12-18T23:50:50.161Z,101629.06
2022-12-18T23:53:52.670Z,101637.31
2022-12-18T23:56:55.234Z,101630.16
2022-12-18T23:59:57.753Z,101626.31
